createdAt,value
2023-08-22T00:00:52.000Z,16.63
2023-08-22T00:05:53.981Z,16.58
2023-08-22T00:10:58.364Z,16.55
2023-08-22T00:16:02.040Z,16.53
2023-08-22T00:21:04.026Z,16.62
2023-08-22T00:26:05.881Z,16.67
2023-08-22T00:31:07.841Z,16.69
2023-08-22T00:36:09.740Z,16.61
2023-08-22T00:41:11.566Z,16.47
2023-08-22T00:46:13.695Z,16.35
2023-08-22T00:51:15.848Z,16.25
2023-08-22T00:56:17.744Z,16.33
2023-08-22T01:01:19.738Z,16.38
2023-08-22T01:06:44.404Z,16.32
2023-08-22T01:11:46.597Z,16.23
2023-08-22T01:16:48.944Z,16.12
2023-08-22T01:21:51.610Z,16.13
2023-08-22T01:26:53.586Z,16.10
2023-08-22T01:32:07.990Z,16.10
2023-08-22T01:37:10.409Z,16.03
2023-08-22T01:42:12.311Z,15.99
2023-08-22T01:47:14.204Z,15.94
2023-08-22T01:52:16.160Z,15.91
2023-08-22T01:57:18.090Z,15.89
2023-08-22T02:02:20.100Z,15.87
2023-08-22T02:07:22.071Z,15.82
2023-08-22T02:12:23.982Z,15.81
2023-08-22T02:17:25.898Z,15.77
2023-08-22T02:22:27.835Z,15.77
2023-08-22T02:27:29.681Z,15.78
2023-08-22T02:32:31.622Z,15.79
2023-08-22T02:37:33.560Z,15.82
2023-08-22T02:42:35.381Z,15.83
2023-08-22T02:47:37.436Z,15.91
2023-08-22T02:52:39.132Z,15.84
2023-08-22T02:57:41.212Z,15.87
2023-08-22T03:02:43.373Z,15.99
2023-08-22T03:07:45.240Z,16.39
2023-08-22T03:12:47.093Z,17.92
2023-08-22T03:17:48.996Z,19.17
2023-08-22T03:22:50.909Z,20.11
2023-08-22T03:27:52.547Z,19.04
2023-08-22T03:32:54.480Z,18.21
2023-08-22T03:37:56.126Z,17.90
2023-08-22T03:42:57.989Z,19.58
2023-08-22T03:47:59.901Z,21.56
2023-08-22T03:53:01.916Z,22.46
2023-08-22T03:58:03.973Z,23.62
2023-08-22T04:03:05.897Z,23.49
2023-08-22T04:08:07.798Z,22.96
2023-08-22T04:13:09.618Z,24.47
2023-08-22T04:18:11.673Z,26.90
2023-08-22T04:23:13.636Z,28.49
2023-08-22T04:28:16.522Z,26.83
2023-08-22T04:33:19.311Z,24.17
2023-08-22T04:38:21.181Z,23.04
2023-08-22T04:43:23.047Z,22.37
2023-08-22T04:48:24.881Z,21.72
2023-08-22T04:53:26.708Z,21.49
2023-08-22T04:58:28.580Z,22.00
2023-08-22T05:03:30.378Z,22.26
2023-08-22T05:08:32.272Z,22.30
2023-08-22T05:13:34.166Z,22.51
2023-08-22T05:18:37.249Z,22.61
2023-08-22T05:23:39.329Z,23.15
2023-08-22T05:28:41.226Z,23.36
2023-08-22T05:33:43.119Z,25.36
2023-08-22T05:38:45.038Z,26.51
2023-08-22T05:43:46.923Z,26.64
2023-08-22T05:48:48.939Z,25.26
2023-08-22T05:53:50.869Z,24.46
2023-08-22T05:58:52.920Z,24.11
2023-08-22T06:03:54.894Z,23.93
2023-08-22T06:08:57.294Z,26.04
2023-08-22T06:13:59.118Z,27.19
2023-08-22T06:19:04.285Z,28.25
2023-08-22T06:24:07.191Z,28.40
2023-08-22T06:29:09.105Z,27.46
2023-08-22T06:34:11.492Z,26.28
2023-08-22T06:39:13.489Z,26.47
2023-08-22T06:44:15.607Z,27.77
2023-08-22T06:49:17.723Z,28.74
2023-08-22T06:59:35.522Z,30.23
2023-08-22T07:04:37.894Z,29.38
2023-08-22T07:09:41.040Z,28.24
2023-08-22T07:14:46.099Z,27.67
2023-08-22T07:19:47.984Z,29.87
2023-08-22T07:24:50.783Z,29.43
2023-08-22T07:29:53.187Z,28.91
2023-08-22T07:34:56.836Z,33.90
2023-08-22T07:40:01.751Z,35.79
2023-08-22T07:45:05.601Z,35.30
2023-08-22T07:50:09.589Z,36.30
2023-08-22T07:55:12.239Z,33.62
2023-08-22T08:00:16.318Z,30.45
2023-08-22T08:05:19.050Z,29.00
2023-08-22T08:10:21.857Z,27.92
2023-08-22T08:15:24.865Z,26.98
2023-08-22T08:20:28.809Z,26.09
2023-08-22T08:25:34.829Z,25.83
2023-08-22T08:30:37.481Z,25.53
2023-08-22T08:35:40.010Z,24.96
2023-08-22T08:40:43.678Z,24.39
2023-08-22T08:45:47.095Z,24.21
2023-08-22T08:50:51.065Z,24.13
2023-08-22T08:55:55.253Z,24.12
2023-08-22T09:01:08.783Z,23.97
2023-08-22T09:06:11.889Z,24.00
2023-08-22T09:11:14.573Z,24.44
2023-08-22T09:16:20.125Z,24.79
2023-08-22T09:21:22.907Z,24.61
2023-08-22T09:26:26.119Z,24.35
2023-08-22T09:31:28.949Z,24.22
2023-08-22T09:36:35.634Z,24.05
2023-08-22T09:41:40.813Z,23.87
2023-08-22T09:46:43.585Z,23.63
2023-08-22T09:51:48.767Z,23.54
2023-08-22T09:56:56.789Z,22.96
2023-08-22T10:02:01.004Z,22.17
2023-08-22T10:07:03.195Z,21.76
2023-08-22T10:12:10.893Z,21.41
2023-08-22T10:27:52.443Z,21.13
2023-08-22T10:33:28.740Z,20.75
2023-08-22T10:39:01.667Z,20.87
2023-08-22T10:44:05.361Z,21.25
2023-08-22T10:49:08.680Z,21.22
2023-08-22T10:54:30.688Z,21.30
2023-08-22T10:59:35.940Z,21.42
2023-08-22T11:04:40.067Z,21.40
2023-08-22T11:09:42.110Z,21.56
2023-08-22T11:14:48.328Z,21.74
2023-08-22T11:19:50.848Z,21.82
2023-08-22T11:24:53.961Z,21.49
2023-08-22T11:29:59.249Z,21.33
2023-08-22T11:35:05.717Z,21.27
2023-08-22T11:40:08.831Z,21.33
2023-08-22T11:45:17.745Z,21.36
2023-08-22T11:50:31.300Z,21.29
2023-08-22T11:55:35.143Z,21.11
2023-08-22T12:00:37.457Z,20.96
2023-08-22T12:05:46.125Z,20.75
2023-08-22T12:10:53.208Z,20.70
2023-08-22T12:16:00.181Z,20.69
2023-08-22T12:21:06.481Z,20.69
2023-08-22T12:26:08.569Z,20.68
2023-08-22T12:31:27.549Z,20.74
2023-08-22T12:36:29.484Z,20.89
2023-08-22T12:41:35.796Z,20.93
2023-08-22T12:46:38.991Z,20.96
2023-08-22T12:51:42.288Z,20.89
2023-08-22T12:56:48.688Z,20.86
2023-08-22T13:01:51.870Z,20.86
2023-08-22T13:06:53.875Z,20.93
2023-08-22T13:11:55.811Z,20.87
2023-08-22T13:17:04.594Z,21.05
2023-08-22T13:22:07.288Z,21.19
2023-08-22T13:27:09.707Z,21.26
2023-08-22T13:32:12.020Z,21.37
2023-08-22T13:42:34.114Z,21.30
2023-08-22T13:47:36.713Z,21.26
2023-08-22T13:52:44.924Z,21.31
2023-08-22T13:57:47.247Z,21.35
2023-08-22T14:02:51.151Z,21.32
2023-08-22T14:07:57.292Z,21.36
2023-08-22T14:13:08.765Z,21.64
2023-08-22T14:18:13.529Z,21.65
2023-08-22T14:23:15.439Z,22.09
2023-08-22T14:28:17.340Z,22.04
2023-08-22T14:33:19.437Z,22.56
2023-08-22T14:38:21.482Z,22.06
2023-08-22T14:43:23.684Z,21.50
2023-08-22T14:48:25.663Z,21.19
2023-08-22T14:53:28.924Z,20.88
2023-08-22T14:58:44.185Z,20.67
2023-08-22T15:03:46.695Z,20.50
2023-08-22T15:08:48.659Z,20.42
2023-08-22T15:13:50.602Z,20.27
2023-08-22T15:18:52.563Z,20.08
2023-08-22T15:23:54.216Z,19.89
2023-08-22T15:28:56.056Z,19.87
2023-08-22T15:33:58.701Z,19.77
2023-08-22T15:39:00.528Z,19.69
2023-08-22T15:44:03.290Z,19.66
2023-08-22T15:49:05.332Z,19.54
2023-08-22T15:54:07.049Z,19.26
2023-08-22T15:59:08.904Z,19.23
2023-08-22T16:04:10.879Z,19.25
2023-08-22T16:09:12.813Z,19.26
2023-08-22T16:14:15.070Z,19.21
2023-08-22T16:19:16.921Z,19.25
2023-08-22T16:24:19.834Z,19.18
2023-08-22T16:29:21.771Z,19.14
2023-08-22T16:34:23.459Z,18.97
2023-08-22T16:39:25.376Z,18.92
2023-08-22T16:44:27.126Z,18.81
2023-08-22T16:49:29.016Z,18.83
2023-08-22T16:54:30.642Z,18.64
2023-08-22T16:59:32.771Z,18.57
2023-08-22T17:04:34.699Z,18.45
2023-08-22T17:09:36.757Z,18.35
2023-08-22T17:14:38.406Z,18.09
2023-08-22T17:19:40.310Z,18.02
2023-08-22T17:24:42.156Z,17.97
2023-08-22T17:29:44.082Z,17.91
2023-08-22T17:34:45.916Z,17.82
2023-08-22T17:39:47.846Z,17.73
2023-08-22T17:44:51.467Z,17.57
2023-08-22T17:49:53.343Z,17.55
2023-08-22T17:54:55.319Z,17.49
2023-08-22T17:59:57.181Z,17.43
2023-08-22T18:04:59.188Z,17.40
2023-08-22T18:10:00.848Z,17.28
2023-08-22T18:15:02.974Z,17.32
2023-08-22T18:20:06.357Z,17.30
2023-08-22T18:25:08.470Z,17.29
2023-08-22T18:30:10.408Z,17.20
2023-08-22T18:35:12.343Z,17.21
2023-08-22T18:40:14.401Z,17.18
2023-08-22T18:45:16.229Z,17.11
2023-08-22T18:50:18.386Z,17.21
2023-08-22T18:55:20.302Z,17.32
2023-08-22T19:00:22.230Z,17.29
2023-08-22T19:05:23.973Z,17.12
2023-08-22T19:10:25.892Z,17.06
2023-08-22T19:15:27.746Z,17.00
2023-08-22T19:20:29.728Z,16.92
2023-08-22T19:25:31.775Z,16.88
2023-08-22T19:30:33.683Z,16.89
2023-08-22T19:35:39.312Z,16.93
2023-08-22T19:40:44.622Z,16.95
2023-08-22T19:45:46.589Z,16.88
2023-08-22T19:50:48.531Z,16.87
2023-08-22T19:55:50.424Z,16.86
2023-08-22T20:00:55.122Z,16.84
2023-08-22T20:06:00.614Z,16.73
2023-08-22T20:11:02.595Z,16.67
2023-08-22T20:16:04.581Z,16.59
2023-08-22T20:21:06.495Z,16.52
2023-08-22T20:26:08.354Z,16.41
2023-08-22T20:31:11.871Z,16.35
2023-08-22T20:36:13.941Z,16.26
2023-08-22T20:41:15.811Z,16.21
2023-08-22T20:46:17.694Z,16.16
2023-08-22T20:51:19.559Z,16.11
2023-08-22T20:56:21.442Z,16.04
2023-08-22T21:01:23.422Z,16.05
2023-08-22T21:06:25.379Z,16.05
2023-08-22T21:11:27.321Z,15.98
2023-08-22T21:16:30.808Z,15.94
2023-08-22T21:21:34.774Z,15.92
2023-08-22T21:26:36.627Z,15.88
2023-08-22T21:31:38.604Z,15.81
2023-08-22T21:36:40.312Z,15.67
2023-08-22T21:41:42.163Z,15.72
2023-08-22T21:46:44.073Z,15.67
2023-08-22T21:51:45.973Z,15.61
2023-08-22T21:56:47.883Z,15.61
2023-08-22T22:01:49.897Z,15.65
2023-08-22T22:06:51.916Z,15.65
2023-08-22T22:11:53.772Z,15.70
2023-08-22T22:16:55.648Z,15.66
2023-08-22T22:21:57.631Z,15.59
2023-08-22T22:26:59.535Z,15.51
2023-08-22T22:32:01.413Z,15.42
2023-08-22T22:37:03.224Z,15.32
2023-08-22T22:42:05.365Z,15.25
2023-08-22T22:47:07.098Z,15.11
2023-08-22T22:52:08.906Z,15.11
2023-08-22T22:57:10.758Z,15.07
2023-08-22T23:02:12.668Z,15.03
2023-08-22T23:07:14.520Z,15.00
2023-08-22T23:12:16.461Z,14.97
2023-08-22T23:17:18.629Z,14.95
2023-08-22T23:22:20.276Z,14.81
2023-08-22T23:27:22.162Z,14.79
2023-08-22T23:32:29.486Z,14.72
2023-08-22T23:37:31.616Z,14.68
2023-08-22T23:42:34.973Z,14.65
2023-08-22T23:47:37.005Z,14.62
2023-08-22T23:52:39.041Z,14.59
2023-08-22T23:57:40.900Z,14.56
